Time;durP1;ratioP1;P1;durP2;ratioP2;P2;SDS_P1;SDS_P2;PMS_P1;PMS_P2;Temp;Humidity;BMP_temperature;BMP_pressure;BME280_temperature;BME280_humidity;BME280_pressure;Samples;Min_cycle;Max_cycle;Signal;HPM_P1;HPM_P2
2022/11/21 00:01:22;;;;;;;12.77;6.43;;;;;;;-5.19;100.00;99096.09;5152840;27;20093;-46
2022/11/21 00:03:48;;;;;;;12.73;6.47;;;;;;;-5.27;100.00;99094.72;5152918;27;20053;-47
2022/11/21 00:06:15;;;;;;;11.52;6.10;;;;;;;-5.09;100.00;99116.72;5153317;27;20058;-46
2022/11/21 00:08:41;;;;;;;13.75;6.72;;;;;;;-4.95;100.00;99114.34;5152746;27;20133;-48
2022/11/21 00:11:08;;;;;;;14.73;6.15;;;;;;;-5.18;100.00;99102.25;5152759;27;20066;-46
2022/11/21 00:13:34;;;;;;;13.40;6.88;;;;;;;-5.29;100.00;99106.78;5152775;27;20050;-46
2022/11/21 00:16:04;;;;;;;12.90;6.38;;;;;;;-5.39;100.00;99126.22;5152599;27;20428;-47
2022/11/21 00:18:30;;;;;;;14.82;5.88;;;;;;;-5.19;100.00;99151.44;5152762;27;20047;-49
2022/11/21 00:20:56;;;;;;;11.30;6.40;;;;;;;-4.84;100.00;99172.13;5152580;27;20050;-49
2022/11/21 00:23:27;;;;;;;13.77;7.38;;;;;;;-5.06;100.00;99148.28;5152709;27;20138;-47
2022/11/21 00:25:53;;;;;;;13.27;7.22;;;;;;;-4.92;100.00;99137.88;5152807;27;20046;-48
2022/11/21 00:28:19;;;;;;;16.90;6.80;;;;;;;-4.94;100.00;99131.97;5152576;27;20420;-47
2022/11/21 00:30:46;;;;;;;13.73;6.50;;;;;;;-4.81;100.00;99144.84;5152554;27;20078;-47
2022/11/21 00:33:13;;;;;;;12.75;7.05;;;;;;;-4.75;100.00;99122.41;5152425;27;20150;-49
2022/11/21 00:35:39;;;;;;;13.23;6.38;;;;;;;-4.93;100.00;99090.81;5152019;27;20050;-48
2022/11/21 00:38:05;;;;;;;13.25;7.30;;;;;;;-4.82;100.00;99085.22;5152222;27;20141;-51
2022/11/21 00:40:31;;;;;;;12.40;6.13;;;;;;;-5.16;100.00;99079.53;5152519;27;20424;-47
2022/11/21 00:42:58;;;;;;;10.73;5.32;;;;;;;-5.22;100.00;99089.41;5152214;27;20552;-47
2022/11/21 00:45:24;;;;;;;13.13;6.82;;;;;;;-4.89;100.00;99124.00;5152246;27;20516;-47
2022/11/21 00:47:50;;;;;;;14.95;7.65;;;;;;;-5.25;100.00;99100.63;5152214;27;20049;-50
2022/11/21 00:50:17;;;;;;;11.48;6.50;;;;;;;-4.67;100.00;99139.78;5152297;27;20098;-50
2022/11/21 00:52:44;;;;;;;11.70;6.65;;;;;;;-5.26;100.00;99101.69;5152220;27;20179;-47
2022/11/21 00:55:10;;;;;;;13.93;6.28;;;;;;;-5.01;100.00;99124.22;5152113;27;20463;-46
2022/11/21 00:57:36;;;;;;;15.43;7.20;;;;;;;-4.95;100.00;99115.16;5152002;27;20550;-46
2022/11/21 01:00:04;;;;;;;13.63;7.18;;;;;;;-4.84;100.00;99124.78;5152031;27;20051;-50
2022/11/21 01:02:32;;;;;;;15.38;6.75;;;;;;;-5.01;100.00;99118.88;5151945;27;20051;-49
2022/11/21 01:04:58;;;;;;;12.38;6.63;;;;;;;-4.98;100.00;99113.00;5151695;27;20078;-47
2022/11/21 01:07:25;;;;;;;15.10;6.78;;;;;;;-4.97;100.00;99117.25;5152118;27;20050;-47
2022/11/21 01:09:51;;;;;;;12.23;6.38;;;;;;;-4.92;100.00;99111.94;5151761;27;20057;-47
2022/11/21 01:12:17;;;;;;;13.77;6.97;;;;;;;-4.89;100.00;99114.09;5152013;27;20434;-47
2022/11/21 01:14:44;;;;;;;11.68;6.45;;;;;;;-4.94;100.00;99116.75;5151848;27;20051;-47
2022/11/21 01:17:10;;;;;;;15.43;6.75;;;;;;;-5.16;100.00;99116.13;5151639;27;20047;-49
2022/11/21 01:19:36;;;;;;;16.90;7.43;;;;;;;-4.90;100.00;99149.09;5151912;27;20416;-47
2022/11/21 01:22:03;;;;;;;16.10;7.45;;;;;;;-5.08;100.00;99145.06;5151633;27;20507;-47
2022/11/21 01:24:30;;;;;;;10.45;5.97;;;;;;;-5.14;100.00;99152.25;5151585;27;20084;-47
2022/11/21 01:26:56;;;;;;;16.40;7.05;;;;;;;-5.06;100.00;99162.44;5151639;27;20069;-46
2022/11/21 01:29:22;;;;;;;13.77;6.32;;;;;;;-4.97;100.00;99170.75;5151628;27;20050;-47
2022/11/21 01:31:49;;;;;;;9.80;6.03;;;;;;;-5.09;100.00;99178.19;5151343;27;20050;-46
2022/11/21 01:34:15;;;;;;;12.77;6.80;;;;;;;-4.88;100.00;99187.09;5151459;27;20082;-48
2022/11/21 01:36:42;;;;;;;12.25;6.13;;;;;;;-5.00;100.00;99174.75;5151385;27;20046;-47
2022/11/21 01:39:10;;;;;;;12.52;6.05;;;;;;;-5.12;100.00;99171.50;5151616;27;20211;-47
2022/11/21 01:41:39;;;;;;;15.68;8.10;;;;;;;-4.92;100.00;99181.47;5151411;27;20090;-46
2022/11/21 01:44:14;;;;;;;10.98;6.38;;;;;;;-4.70;100.00;99191.13;5151450;27;20078;-47
2022/11/21 01:46:40;;;;;;;13.98;6.50;;;;;;;-4.66;100.00;99179.66;5152745;27;20515;-48
2022/11/21 01:49:10;;;;;;;13.90;7.00;;;;;;;-4.89;100.00;99151.53;5158292;27;20145;-47
2022/11/21 01:51:40;;;;;;;11.18;6.78;;;;;;;-4.55;100.00;99167.09;5158324;27;20111;-46
2022/11/21 01:54:10;;;;;;;12.63;7.22;;;;;;;-4.61;100.00;99133.38;5158230;27;20051;-48
2022/11/21 01:56:43;;;;;;;11.50;7.47;;;;;;;-4.90;100.00;99125.84;5157990;27;20134;-46
2022/11/21 01:59:14;;;;;;;13.23;6.63;;;;;;;-4.99;100.00;99103.38;5158001;27;20086;-50
2022/11/21 02:01:41;;;;;;;12.63;6.82;;;;;;;-5.00;100.00;99118.63;5158247;27;20047;-48
2022/11/21 02:04:08;;;;;;;10.57;6.03;;;;;;;-4.97;100.00;99136.78;5158210;27;20438;-46
2022/11/21 02:06:36;;;;;;;12.75;6.28;;;;;;;-5.06;100.00;99146.41;5158166;27;20052;-47
2022/11/21 02:09:04;;;;;;;14.40;7.55;;;;;;;-4.52;100.00;99169.25;5157960;27;20054;-46
2022/11/21 02:11:35;;;;;;;11.30;6.30;;;;;;;-4.64;100.00;99141.94;5157907;27;20050;-47
2022/11/21 02:14:03;;;;;;;14.10;7.03;;;;;;;-4.99;100.00;99127.44;5158392;27;20344;-47
2022/11/21 02:16:30;;;;;;;12.05;5.25;;;;;;;-5.22;100.00;99129.50;5158256;27;20483;-47
2022/11/21 02:18:56;;;;;;;13.40;7.07;;;;;;;-5.05;100.00;99152.53;5158119;27;20050;-46
2022/11/21 02:21:32;;;;;;;11.07;6.50;;;;;;;-5.11;100.00;99159.75;5158081;27;20050;-46
2022/11/21 02:24:03;;;;;;;13.30;6.80;;;;;;;-5.08;100.00;99155.75;5157740;27;20078;-46
2022/11/21 02:26:31;;;;;;;12.98;6.75;;;;;;;-4.87;100.00;99181.47;5157630;27;20066;-46
2022/11/21 02:28:57;;;;;;;13.18;6.95;;;;;;;-4.87;100.00;99164.63;5157849;27;20134;-47
2022/11/21 02:31:24;;;;;;;9.73;5.45;;;;;;;-5.26;100.00;99165.03;5157579;27;20058;-47
2022/11/21 02:33:50;;;;;;;11.90;6.57;;;;;;;-4.86;100.00;99193.78;5157894;27;20042;-46
2022/11/21 02:36:38;;;;;;;12.80;7.28;;;;;;;-4.86;100.00;99183.09;5157613;27;20100;-46
2022/11/21 02:39:06;;;;;;;12.38;6.60;;;;;;;-5.27;100.00;99160.75;5157868;27;20140;-46
2022/11/21 02:41:37;;;;;;;11.43;6.68;;;;;;;-4.88;100.00;99184.41;5157625;27;20050;-47
2022/11/21 02:44:08;;;;;;;11.95;6.20;;;;;;;-5.23;100.00;99180.56;5157724;27;20047;-46
2022/11/21 02:46:35;;;;;;;11.50;6.32;;;;;;;-5.03;100.00;99191.31;5157677;27;20161;-47
2022/11/21 02:49:06;;;;;;;13.77;6.68;;;;;;;-5.08;100.00;99187.81;5157636;27;20078;-47
2022/11/21 02:51:32;;;;;;;13.73;6.65;;;;;;;-5.17;100.00;99194.72;5157191;27;20057;-47
2022/11/21 02:53:58;;;;;;;11.50;5.85;;;;;;;-5.37;100.00;99200.78;5157407;27;20047;-47
2022/11/21 02:56:24;;;;;;;15.10;7.70;;;;;;;-5.28;100.00;99199.22;5157574;27;20084;-46
2022/11/21 02:58:51;;;;;;;12.52;6.03;;;;;;;-5.12;100.00;99208.13;5155836;27;20146;-47
2022/11/21 03:01:18;;;;;;;14.43;7.63;;;;;;;-4.68;100.00;99211.22;5153957;27;20053;-47
2022/11/21 03:03:44;;;;;;;13.55;7.13;;;;;;;-4.69;100.00;99198.91;5154111;27;20107;-49
2022/11/21 03:06:10;;;;;;;14.52;7.95;;;;;;;-4.76;100.00;99171.63;5154256;27;20047;-49
2022/11/21 03:08:36;;;;;;;12.93;6.55;;;;;;;-4.67;100.00;99153.97;5153773;27;20050;-49
2022/11/21 03:11:03;;;;;;;11.93;6.85;;;;;;;-4.75;100.00;99135.78;5153816;27;20055;-47
2022/11/21 03:13:29;;;;;;;14.25;7.03;;;;;;;-5.17;100.00;99122.56;5153757;27;20051;-47
2022/11/21 03:15:56;;;;;;;19.30;7.38;;;;;;;-4.71;100.00;99144.06;5153732;27;20061;-48
2022/11/21 03:18:22;;;;;;;17.85;7.25;;;;;;;-4.76;100.00;99140.31;5153606;27;20073;-48
2022/11/21 03:20:49;;;;;;;12.77;6.25;;;;;;;-4.69;100.00;99118.66;5153885;27;20047;-49
2022/11/21 03:23:15;;;;;;;11.63;6.40;;;;;;;-4.94;100.00;99106.03;5153422;27;20047;-47
2022/11/21 03:25:41;;;;;;;14.43;6.93;;;;;;;-4.59;100.00;99118.69;5153594;27;20102;-49
2022/11/21 03:28:07;;;;;;;12.00;6.55;;;;;;;-4.80;100.00;99088.44;5153672;27;20182;-48
2022/11/21 03:30:34;;;;;;;10.18;6.15;;;;;;;-4.66;100.00;99101.28;5153337;27;20107;-50
2022/11/21 03:33:01;;;;;;;14.38;8.13;;;;;;;-4.76;100.00;99076.13;5153778;27;20051;-47
2022/11/21 03:35:27;;;;;;;11.20;6.60;;;;;;;-4.65;100.00;99071.59;5153404;27;20058;-47
2022/11/21 03:37:54;;;;;;;15.07;6.80;;;;;;;-4.53;100.00;99063.31;5153549;27;20183;-48
2022/11/21 03:40:20;;;;;;;14.98;7.38;;;;;;;-4.52;100.00;99043.50;5153184;27;20123;-47
2022/11/21 03:42:46;;;;;;;11.90;6.32;;;;;;;-4.39;100.00;99016.19;5153347;27;20073;-48
2022/11/21 03:45:13;;;;;;;15.52;7.38;;;;;;;-4.40;100.00;98989.69;5153122;27;20497;-49
2022/11/21 03:47:39;;;;;;;12.18;6.97;;;;;;;-4.81;100.00;98945.06;5153261;27;20149;-49
2022/11/21 03:50:07;;;;;;;11.75;6.45;;;;;;;-4.60;100.00;98983.31;5152946;27;20086;-48
2022/11/21 03:52:33;;;;;;;11.68;6.05;;;;;;;-4.66;100.00;98991.63;5153248;27;20164;-48
2022/11/21 03:54:59;;;;;;;13.75;7.35;;;;;;;-4.66;100.00;99010.34;5153330;27;20050;-47
2022/11/21 03:57:26;;;;;;;15.13;7.38;;;;;;;-4.56;100.00;99003.09;5153133;27;20050;-47
2022/11/21 03:59:52;;;;;;;16.27;7.18;;;;;;;-4.46;100.00;98988.91;5153164;27;20462;-46
2022/11/21 04:02:18;;;;;;;14.02;7.00;;;;;;;-4.66;100.00;98952.28;5152917;27;20424;-47
2022/11/21 04:04:45;;;;;;;13.82;6.82;;;;;;;-4.54;100.00;98986.78;5153261;27;20050;-48
2022/11/21 04:07:12;;;;;;;17.27;7.40;;;;;;;-4.37;100.00;98987.28;5152707;27;20047;-47
2022/11/21 04:09:38;;;;;;;12.30;7.38;;;;;;;-4.38;100.00;98958.13;5152291;27;20053;-47
2022/11/21 04:12:04;;;;;;;14.77;7.30;;;;;;;-4.27;100.00;98946.28;5152632;27;20058;-46
2022/11/21 04:14:31;;;;;;;14.88;7.43;;;;;;;-4.25;100.00;98906.69;5152714;27;20110;-49
2022/11/21 04:16:57;;;;;;;13.45;6.78;;;;;;;-4.35;100.00;98890.66;5152344;27;20043;-48
2022/11/21 04:19:23;;;;;;;10.23;6.05;;;;;;;-4.55;100.00;98859.44;5152816;27;20057;-46
2022/11/21 04:21:49;;;;;;;14.93;7.47;;;;;;;-4.26;100.00;98891.72;5152804;27;20149;-48
2022/11/21 04:24:16;;;;;;;13.40;5.80;;;;;;;-4.92;100.00;98868.63;5152491;27;20050;-47
2022/11/21 04:26:43;;;;;;;17.95;6.88;;;;;;;-4.36;100.00;98924.66;5152893;27;20133;-46
2022/11/21 04:29:09;;;;;;;15.93;7.43;;;;;;;-4.22;100.00;98916.84;5152658;27;20050;-46
2022/11/21 04:31:36;;;;;;;13.93;7.53;;;;;;;-4.45;100.00;98888.81;5153035;27;20076;-46
2022/11/21 04:34:02;;;;;;;13.15;7.78;;;;;;;-4.54;100.00;98903.84;5152474;27;20043;-46
2022/11/21 04:36:29;;;;;;;12.57;6.82;;;;;;;-4.55;100.00;98921.75;5152853;27;20050;-46
2022/11/21 04:38:55;;;;;;;17.17;7.65;;;;;;;-4.65;100.00;98947.75;5152439;27;20042;-46
2022/11/21 04:41:22;;;;;;;14.90;6.47;;;;;;;-4.46;100.00;98964.00;5152127;27;20085;-47
2022/11/21 04:43:48;;;;;;;11.57;7.20;;;;;;;-4.59;100.00;98960.84;5152415;27;20047;-46
2022/11/21 04:46:14;;;;;;;15.45;7.30;;;;;;;-4.81;100.00;98990.53;5152374;27;20043;-47
2022/11/21 04:48:41;;;;;;;14.60;7.72;;;;;;;-4.81;100.00;99016.47;5152162;27;20053;-46
2022/11/21 04:51:07;;;;;;;15.90;7.63;;;;;;;-4.69;100.00;99030.41;5152216;27;20492;-46
2022/11/21 04:53:33;;;;;;;15.25;7.78;;;;;;;-4.54;100.00;99033.03;5152171;27;20470;-46
2022/11/21 04:56:03;;;;;;;15.73;7.55;;;;;;;-4.10;100.00;99034.31;5152029;27;20440;-47
2022/11/21 04:58:30;;;;;;;15.13;7.35;;;;;;;-4.06;100.00;98997.91;5152343;27;20053;-49
2022/11/21 05:00:57;;;;;;;15.38;7.13;;;;;;;-3.91;100.00;98983.66;5152039;27;20050;-51
2022/11/21 05:03:23;;;;;;;14.63;7.43;;;;;;;-4.36;100.00;98927.34;5152002;27;20075;-47
2022/11/21 05:05:49;;;;;;;32.15;7.97;;;;;;;-4.43;100.00;98921.47;5151759;27;20145;-50
2022/11/21 05:08:15;;;;;;;15.82;7.60;;;;;;;-4.41;100.00;98911.28;5151672;27;20176;-47
2022/11/21 05:13:27;;;;;;;18.40;8.10;;;;;;;-4.30;100.00;98918.22;5151843;27;20054;-54
2022/11/21 05:15:56;;;;;;;13.38;6.25;;;;;;;-4.65;100.00;98919.13;5151789;27;20515;-52
2022/11/21 05:18:23;;;;;;;16.83;8.10;;;;;;;-4.63;100.00;98957.09;5151531;27;20095;-53
2022/11/21 05:20:49;;;;;;;14.88;7.40;;;;;;;-4.60;100.00;98996.69;5151826;27;20089;-51
2022/11/21 05:23:15;;;;;;;16.23;7.68;;;;;;;-4.54;100.00;99021.56;5150633;27;20053;-52
2022/11/21 05:25:42;;;;;;;19.20;8.18;;;;;;;-4.33;100.00;99041.06;5151803;27;20051;-55
2022/11/21 05:28:08;;;;;;;12.95;7.10;;;;;;;-4.23;100.00;99033.03;5151368;27;20050;-55
2022/11/21 05:30:36;;;;;;;16.65;8.00;;;;;;;-4.39;100.00;99024.22;5151576;27;20046;-54
2022/11/21 05:33:03;;;;;;;17.38;8.38;;;;;;;-4.53;100.00;99002.56;5151584;27;20046;-52
2022/11/21 05:35:29;;;;;;;17.90;8.07;;;;;;;-4.53;100.00;99009.78;5151553;27;20173;-56
2022/11/21 05:37:56;;;;;;;17.88;7.35;;;;;;;-4.35;100.00;99021.81;5151282;27;20054;-54
2022/11/21 05:40:23;;;;;;;14.27;7.95;;;;;;;-3.94;100.00;99035.09;5151382;27;20051;-54
2022/11/21 05:45:34;;;;;;;15.32;7.38;;;;;;;-4.59;100.00;99002.84;5151265;27;20046;-55
2022/11/21 05:48:00;;;;;;;17.70;8.07;;;;;;;-4.35;100.00;99009.22;5151237;27;20550;-53
2022/11/21 05:50:27;;;;;;;16.40;8.68;;;;;;;-4.60;100.00;99030.66;5150947;27;20051;-56
2022/11/21 05:52:53;;;;;;;14.20;7.88;;;;;;;-4.85;100.00;99032.25;5151490;27;20057;-56
2022/11/21 05:55:20;;;;;;;16.30;8.82;;;;;;;-4.34;100.00;99079.59;5151089;27;20436;-54
2022/11/21 05:57:46;;;;;;;16.75;8.38;;;;;;;-4.30;100.00;99075.31;5151031;27;20051;-53
2022/11/21 06:00:14;;;;;;;18.08;8.27;;;;;;;-4.21;100.00;99075.56;5151016;27;20097;-52
2022/11/21 06:05:24;;;;;;;20.63;9.23;;;;;;;-4.26;100.00;99041.59;5151280;27;20056;-53
2022/11/21 06:07:51;;;;;;;21.98;8.98;;;;;;;-4.27;100.00;99031.94;5151288;27;20166;-54
2022/11/21 06:10:18;;;;;;;17.75;8.57;;;;;;;-3.81;100.00;99048.69;5151235;27;20435;-52
2022/11/21 06:12:44;;;;;;;15.43;8.23;;;;;;;-4.12;100.00;99010.50;5150936;27;20566;-56
2022/11/21 06:15:10;;;;;;;16.60;8.85;;;;;;;-4.15;100.00;99007.56;5151418;27;20175;-51
2022/11/21 06:17:37;;;;;;;20.48;9.60;;;;;;;-3.79;100.00;99018.97;5150736;27;20183;-55
2022/11/21 06:20:03;;;;;;;17.83;8.88;;;;;;;-3.99;100.00;98994.94;5151105;27;20099;-51
2022/11/21 06:22:30;;;;;;;25.08;8.30;;;;;;;-4.12;100.00;98982.94;5150908;27;20162;-53
2022/11/21 06:24:57;;;;;;;20.92;8.75;;;;;;;-4.32;100.00;99005.22;5150716;27;20051;-56
2022/11/21 06:27:23;;;;;;;15.93;8.40;;;;;;;-4.35;100.00;99033.31;5150641;27;20530;-52
2022/11/21 06:29:50;;;;;;;19.95;9.48;;;;;;;-4.00;100.00;99044.19;5150635;27;20097;-56
2022/11/21 06:32:16;;;;;;;17.63;8.45;;;;;;;-4.08;100.00;99010.75;5150620;27;20417;-52
2022/11/21 06:34:42;;;;;;;17.25;8.32;;;;;;;-4.09;100.00;98999.25;5153596;27;20053;-55
2022/11/21 06:37:09;;;;;;;19.95;9.35;;;;;;;-3.90;100.00;98986.06;5154207;27;20086;-59
2022/11/21 06:39:35;;;;;;;18.02;8.70;;;;;;;-4.11;100.00;98957.75;5154243;27;20406;-55
2022/11/21 06:42:02;;;;;;;20.75;8.82;;;;;;;-3.80;100.00;98991.41;5154257;27;20069;-55
2022/11/21 06:44:28;;;;;;;19.70;9.60;;;;;;;-4.18;100.00;98981.34;5154250;27;20133;-58
2022/11/21 06:46:54;;;;;;;15.00;8.25;;;;;;;-4.08;100.00;98986.66;5154016;27;20043;-61
2022/11/21 06:49:21;;;;;;;18.73;8.70;;;;;;;-3.87;100.00;98977.47;5154252;27;20137;-59
2022/11/21 06:51:47;;;;;;;18.38;8.50;;;;;;;-3.98;100.00;98989.31;5154071;27;20046;-57
2022/11/21 06:54:14;;;;;;;17.95;9.80;;;;;;;-3.94;100.00;98995.72;5153823;27;20054;-59
2022/11/21 06:56:40;;;;;;;16.50;9.07;;;;;;;-3.46;100.00;98989.88;5153960;27;20042;-55
2022/11/21 06:59:07;;;;;;;16.67;9.15;;;;;;;-3.73;100.00;98899.19;5153820;27;20107;-57
2022/11/21 07:01:33;;;;;;;21.50;9.43;;;;;;;-3.30;100.00;98902.91;5153840;27;20046;-57
2022/11/21 07:04:00;;;;;;;20.63;9.27;;;;;;;-3.45;100.00;98866.31;5153811;27;20051;-56
2022/11/21 07:06:26;;;;;;;25.08;10.40;;;;;;;-3.94;100.00;98843.06;5153635;27;20051;-53
2022/11/21 07:08:53;;;;;;;14.65;8.88;;;;;;;-3.37;100.00;98863.03;5153625;27;20051;-57
2022/11/21 07:11:20;;;;;;;21.80;9.27;;;;;;;-3.10;100.00;98830.38;5153905;27;20051;-55
2022/11/21 07:13:45;;;;;;;17.77;9.02;;;;;;;-3.58;100.00;98751.72;5153644;27;20402;-58
2022/11/21 07:16:13;;;;;;;37.55;15.70;;;;;;;-3.12;100.00;98765.47;5153637;27;20049;-58
2022/11/21 07:18:40;;;;;;;18.02;9.05;;;;;;;-3.44;100.00;98709.78;5153371;27;20059;-55
2022/11/21 07:21:07;;;;;;;16.88;8.80;;;;;;;-3.48;100.00;98694.56;5153586;27;20054;-56
2022/11/21 07:23:33;;;;;;;14.80;8.18;;;;;;;-3.73;100.00;98690.25;5153570;27;20511;-56
2022/11/21 07:26:00;;;;;;;21.85;9.65;;;;;;;-3.49;100.00;98742.00;5153470;27;20111;-56
2022/11/21 07:28:27;;;;;;;21.77;9.43;;;;;;;-3.28;100.00;98747.16;5153496;27;20070;-58
2022/11/21 07:30:55;;;;;;;23.13;9.80;;;;;;;-3.16;100.00;98718.88;5153441;27;20055;-57
2022/11/21 07:33:23;;;;;;;18.13;8.75;;;;;;;-3.62;100.00;98675.69;5153158;27;20051;-56
2022/11/21 07:35:49;;;;;;;20.17;10.25;;;;;;;-3.45;100.00;98699.34;5153208;27;20146;-55
2022/11/21 07:38:15;;;;;;;17.50;9.13;;;;;;;-3.63;100.00;98707.03;5153531;27;20093;-54
2022/11/21 07:40:42;;;;;;;19.55;9.35;;;;;;;-3.52;100.00;98729.16;5153180;27;20082;-54
2022/11/21 07:43:10;;;;;;;17.02;9.15;;;;;;;-3.29;100.00;98718.75;5153380;27;20057;-59
2022/11/21 07:45:36;;;;;;;20.20;9.27;;;;;;;-3.48;100.00;98675.81;5152120;27;20149;-56
2022/11/21 07:48:06;;;;;;;23.63;9.65;;;;;;;-3.40;100.00;98734.13;5153236;27;20100;-54
2022/11/21 07:50:33;;;;;;;18.90;8.85;;;;;;;-3.37;100.00;98731.69;5153071;27;20103;-55
2022/11/21 07:53:01;;;;;;;16.42;7.93;;;;;;;-3.42;100.00;98730.94;5153013;27;20058;-55
2022/11/21 07:55:28;;;;;;;17.63;8.00;;;;;;;-3.12;100.00;98701.13;5152884;27;20047;-56
2022/11/21 07:57:59;;;;;;;18.65;8.57;;;;;;;-3.13;100.00;98645.91;5152952;27;20076;-55
2022/11/21 08:00:25;;;;;;;17.73;9.05;;;;;;;-3.15;100.00;98599.81;5152881;27;20137;-56
2022/11/21 08:02:52;;;;;;;18.20;9.45;;;;;;;-2.75;100.00;98600.31;5152985;27;20606;-56
2022/11/21 08:05:18;;;;;;;17.38;8.38;;;;;;;-2.65;100.00;98569.88;5153100;27;20043;-59
2022/11/21 08:07:45;;;;;;;22.58;8.98;;;;;;;-2.39;100.00;98514.69;5152827;27;20094;-58
2022/11/21 08:10:11;;;;;;;16.90;8.95;;;;;;;-2.57;100.00;98477.16;5153039;27;20127;-54
2022/11/21 08:12:37;;;;;;;18.13;8.90;;;;;;;-3.17;100.00;98445.69;5152522;27;20047;-55
2022/11/21 08:15:05;;;;;;;17.83;8.93;;;;;;;-3.29;100.00;98523.88;5152778;27;20133;-57
2022/11/21 08:17:32;;;;;;;20.27;9.95;;;;;;;-3.22;100.00;98577.13;5152788;27;20106;-56
2022/11/21 08:19:59;;;;;;;22.63;10.82;;;;;;;-2.96;100.00;98591.00;5152675;27;20057;-56
2022/11/21 08:22:25;;;;;;;17.60;8.52;;;;;;;-3.13;100.00;98552.06;5152576;27;20103;-59
2022/11/21 08:24:53;;;;;;;17.65;8.75;;;;;;;-2.88;100.00;98524.06;5152540;27;20145;-55
2022/11/21 08:27:20;;;;;;;18.58;9.38;;;;;;;-2.39;100.00;98474.41;5152648;27;20051;-55
2022/11/21 08:29:46;;;;;;;28.50;13.93;;;;;;;-2.38;100.00;98400.03;5152533;27;20043;-58
2022/11/21 08:32:13;;;;;;;20.25;10.20;;;;;;;-3.00;100.00;98346.75;5152644;27;20137;-55
2022/11/21 08:34:39;;;;;;;20.20;8.73;;;;;;;-2.45;100.00;98357.50;5152381;27;20489;-57
2022/11/21 08:37:05;;;;;;;17.25;9.65;;;;;;;-2.66;100.00;98367.03;5152769;27;20187;-56
2022/11/21 08:39:32;;;;;;;17.90;9.10;;;;;;;-2.75;100.00;98345.47;5152235;27;20173;-54
2022/11/21 08:42:05;;;;;;;20.00;8.82;;;;;;;-2.64;100.00;98333.44;5152167;27;20154;-58
2022/11/21 08:44:31;;;;;;;18.58;8.40;;;;;;;-2.38;100.00;98289.97;5152428;27;20494;-55
2022/11/21 08:46:58;;;;;;;19.17;8.70;;;;;;;-2.60;100.00;98245.06;5152182;27;20047;-59
2022/11/21 08:49:25;;;;;;;17.60;9.43;;;;;;;-2.01;100.00;98213.69;5152221;27;20042;-56
2022/11/21 08:51:52;;;;;;;15.77;9.30;;;;;;;-1.78;100.00;98133.06;5151942;27;20055;-56
2022/11/21 08:54:19;;;;;;;16.90;8.75;;;;;;;-2.31;100.00;98050.66;5152026;27;20063;-55
2022/11/21 08:56:45;;;;;;;19.08;9.27;;;;;;;-1.58;100.00;98076.09;5151896;27;20138;-57
2022/11/21 08:59:12;;;;;;;17.15;8.13;;;;;;;-2.00;100.00;98013.03;5151851;27;20119;-58
2022/11/21 09:01:39;;;;;;;16.83;9.32;;;;;;;-1.78;100.00;98004.13;5151948;27;20497;-54
2022/11/21 09:04:06;;;;;;;21.42;9.38;;;;;;;-1.65;100.00;97995.13;5152173;27;20409;-58
2022/11/21 09:06:32;;;;;;;19.05;9.15;;;;;;;-1.53;100.00;97963.06;5151877;27;20501;-58
2022/11/21 09:08:59;;;;;;;15.23;8.13;;;;;;;-2.44;100.00;97955.69;5151974;27;20428;-56
2022/11/21 09:11:25;;;;;;;17.08;8.90;;;;;;;-1.75;100.00;98039.22;5151899;27;20065;-55
2022/11/21 09:19:18;;;;;;;16.40;9.00;;;;;;;-1.93;100.00;97949.72;5151907;27;20050;-55
2022/11/21 09:21:44;;;;;;;15.95;8.52;;;;;;;-2.23;100.00;97964.78;5151922;27;20375;-54
2022/11/21 09:24:11;;;;;;;21.13;9.68;;;;;;;-1.76;100.00;98013.44;5151896;27;20051;-53
2022/11/21 09:26:37;;;;;;;19.77;8.52;;;;;;;-2.13;100.00;97988.69;5151649;27;20051;-54
2022/11/21 09:29:03;;;;;;;15.90;8.63;;;;;;;-2.06;100.00;98027.72;5151348;27;20050;-57
2022/11/21 09:31:29;;;;;;;22.80;9.40;;;;;;;-1.97;100.00;98048.13;5151565;27;20442;-55
2022/11/21 09:33:56;;;;;;;19.83;9.18;;;;;;;-1.88;100.00;98052.75;5151544;27;20494;-55
2022/11/21 09:36:23;;;;;;;17.65;9.73;;;;;;;-2.31;100.00;98021.13;5151398;27;20133;-55
2022/11/21 09:38:51;;;;;;;20.08;8.82;;;;;;;-2.16;100.00;98032.25;5151458;27;20097;-57
2022/11/21 09:44:21;;;;;;;16.92;8.23;;;;;;;-2.00;100.00;98047.94;5140598;27;20038;-56
2022/11/21 09:46:51;;;;;;;19.75;8.50;;;;;;;-2.09;100.00;98023.75;5151209;27;20053;-55
2022/11/21 09:49:18;;;;;;;16.15;9.25;;;;;;;-1.61;100.00;98054.44;5151289;27;20047;-55
2022/11/21 09:51:45;;;;;;;21.67;9.05;;;;;;;-1.35;100.00;98032.97;5151505;27;20137;-54
2022/11/21 09:54:18;;;;;;;15.95;9.52;;;;;;;-1.80;100.00;98014.38;5151076;27;20134;-55
2022/11/21 09:56:46;;;;;;;13.63;7.25;;;;;;;-1.67;100.00;98025.03;5151636;27;20051;-57
2022/11/21 09:59:28;;;;;;;19.85;9.15;;;;;;;-1.63;100.00;97976.00;5151538;27;20042;-55
2022/11/21 10:01:55;;;;;;;21.92;8.75;;;;;;;-1.73;100.00;97953.72;5151382;27;20054;-54
2022/11/21 10:04:22;;;;;;;16.70;9.18;;;;;;;-1.76;100.00;97969.69;5150936;27;20095;-55
2022/11/21 10:06:56;;;;;;;17.80;8.38;;;;;;;-1.88;100.00;97969.47;5151311;27;20047;-57
2022/11/21 10:09:29;;;;;;;17.90;9.07;;;;;;;-1.58;100.00;97955.16;5153830;27;20051;-55
2022/11/21 10:15:01;;;;;;;18.30;9.95;;;;;;;-1.40;100.00;97926.38;5154663;27;20050;-55
2022/11/21 10:17:37;;;;;;;16.95;9.35;;;;;;;-1.11;100.00;97923.03;5154748;27;20043;-57
2022/11/21 10:20:27;;;;;;;15.52;8.90;;;;;;;-1.98;100.00;97906.88;5154516;27;20046;-55
2022/11/21 10:23:22;;;;;;;17.23;9.60;;;;;;;-1.78;100.00;97942.31;5154475;27;20054;-54
2022/11/21 10:25:54;;;;;;;19.38;9.75;;;;;;;-1.73;100.00;97983.28;5154567;27;20137;-58
2022/11/21 10:28:27;;;;;;;20.90;9.95;;;;;;;-1.38;100.00;98004.03;5154626;27;20191;-52
2022/11/21 10:30:55;;;;;;;17.17;9.75;;;;;;;-1.36;100.00;97986.50;5154270;27;20055;-53
2022/11/21 10:33:29;;;;;;;18.45;9.57;;;;;;;-1.74;100.00;97981.66;5154499;27;20082;-57
2022/11/21 10:35:58;;;;;;;;;;;;;;;-2.43;100.00;97998.34;5154918;27;20042;-54
2022/11/21 10:38:27;;;;;;;15.80;8.82;;;;;;;-2.00;100.00;98086.38;5154377;27;20021;-58
2022/11/21 10:41:01;;;;;;;19.00;9.82;;;;;;;-1.92;100.00;98131.28;5154152;27;20050;-55
2022/11/21 10:46:16;;;;;;;17.65;9.90;;;;;;;-2.00;100.00;98117.78;5097624;27;20053;-54
2022/11/21 10:48:46;;;;;;;21.10;11.13;;;;;;;-1.99;100.00;98147.03;5154116;27;20047;-54
2022/11/21 10:51:26;;;;;;;21.67;11.18;;;;;;;-1.86;100.00;98125.78;5153857;27;20516;-53
2022/11/21 10:56:48;;;;;;;19.77;10.27;;;;;;;-2.15;100.00;98051.84;5154353;27;20130;-54
2022/11/21 10:59:22;;;;;;;18.05;9.43;;;;;;;-2.05;100.00;98110.66;5153854;27;20074;-56
2022/11/21 11:01:55;;;;;;;21.75;10.07;;;;;;;-1.92;100.00;98115.16;5153840;27;20053;-53
2022/11/21 11:04:22;;;;;;;19.70;9.15;;;;;;;-2.22;100.00;98087.19;5153635;27;20508;-53
2022/11/21 11:06:49;;;;;;;21.70;9.93;;;;;;;-1.76;100.00;98168.50;5153584;27;20054;-55
2022/11/21 11:09:29;;;;;;;23.73;9.60;;;;;;;-1.43;100.00;98116.00;5153826;27;20046;-53
2022/11/21 11:12:22;;;;;;;19.63;9.10;;;;;;;-1.31;100.00;98067.00;5153489;27;20137;-55
2022/11/21 11:14:51;;;;;;;17.65;9.65;;;;;;;-1.23;100.00;98035.84;5153737;27;20069;-54
2022/11/21 11:17:26;;;;;;;22.48;10.50;;;;;;;-1.28;100.00;97983.00;5153535;27;20057;-56
2022/11/21 11:20:00;;;;;;;21.75;10.23;;;;;;;-1.14;100.00;97965.91;5151993;27;20187;-53
2022/11/21 11:22:28;;;;;;;18.35;9.93;;;;;;;-1.36;100.00;97950.75;5153622;27;20101;-57
2022/11/21 11:24:55;;;;;;;17.73;9.20;;;;;;;-1.84;100.00;97952.41;5153744;27;20042;-55
2022/11/21 11:27:26;;;;;;;14.98;8.95;;;;;;;-1.69;100.00;97988.81;5153530;27;20042;-54
2022/11/21 11:29:53;;;;;;;18.73;9.10;;;;;;;-1.55;100.00;98000.22;5153210;27;20053;-53
2022/11/21 11:32:19;;;;;;;20.00;9.23;;;;;;;-1.81;100.00;97964.44;5153438;27;20097;-55
2022/11/21 11:34:56;;;;;;;20.30;10.25;;;;;;;-1.72;100.00;98008.25;5153245;27;20133;-53
2022/11/21 11:37:32;;;;;;;21.40;10.10;;;;;;;-1.30;100.00;98044.38;5153295;27;20137;-53
2022/11/21 11:40:07;;;;;;;16.98;9.63;;;;;;;-1.01;100.00;98038.38;5153140;27;20050;-54
2022/11/21 11:48:54;;;;;;;23.13;10.15;;;;;;;-1.58;100.00;98070.72;5153088;27;20470;-55
2022/11/21 11:51:25;;;;;;;21.80;10.98;;;;;;;-1.38;100.00;98082.00;5152832;27;20519;-53